FYGF

Grootfontein Airport

Grootfontein, Namibia
METAR FYGF 201200Z 04008KT 9999 FEW030CB SCT035 37/10 Q1017
Observed Flight Rules
Oct-20 @ 12:00 UTC (52 minutes ago) Visual Flight Rules
Wind Visibility Clouds
40° at 8 knots 10,000+ meters
  • Few at 3,000' AGL
  • Scattered at 3,500' AGL
Temperatures Readings
Current 37°C / 99°F
Dewpoint 10°C / 50°F
Humidity 19%
Altimeter 30.03" Hg
Pressure 1017 hPa
Elevation 1400
METAR FYGF 201200Z 04008KT 9999 FEW030CB SCT035 37/10 Q1017
Observed Flight Rules
Oct-20 @ 12:00 UTC
(52 minutes ago)
VFR
Wind Visibility
40° at 8 knots 10,000+ meters
Clouds
  • Few at 3,000' AGL
  • Scattered at 3,500' AGL
Temperature Dewpoint
37°C / 99°F 10°C / 50°F
Humidity Altimeter Pressure
19% 30.03" Hg 1017 hPa